Time;durP1;ratioP1;P1;durP2;ratioP2;P2;SDS_P1;SDS_P2;PMS_P1;PMS_P2;Temp;Humidity;BMP_temperature;BMP_pressure;BME280_temperature;BME280_humidity;BME280_pressure;Samples;Min_cycle;Max_cycle;Signal;HPM_P1;HPM_P2
2023/04/20 00:00:28;;;;;;;7.15;2.85;;;;;;;2.30;100.00;98790.03;4989317;28;20053;-71
2023/04/20 00:02:53;;;;;;;4.90;3.00;;;;;;;2.38;100.00;98795.50;4987557;28;20031;-71
2023/04/20 00:05:18;;;;;;;9.57;3.50;;;;;;;2.28;100.00;98788.50;4979481;28;20034;-72
2023/04/20 00:07:44;;;;;;;6.50;3.17;;;;;;;2.29;100.00;98788.38;4989840;28;20027;-71
2023/04/20 00:10:09;;;;;;;6.28;3.35;;;;;;;2.32;100.00;98784.56;4990140;28;20038;-71
2023/04/20 00:12:35;;;;;;;5.82;2.83;;;;;;;2.35;100.00;98778.91;4985802;28;20058;-71
2023/04/20 00:15:00;;;;;;;7.30;3.00;;;;;;;2.34;100.00;98777.25;4986556;28;20034;-71
2023/04/20 00:17:26;;;;;;;7.40;3.10;;;;;;;2.29;100.00;98761.69;4994076;28;20052;-71
2023/04/20 00:19:51;;;;;;;6.07;3.00;;;;;;;2.41;100.00;98767.63;4991271;28;20031;-71
2023/04/20 00:22:16;;;;;;;5.32;2.92;;;;;;;2.31;100.00;98773.06;4992071;28;20058;-71
2023/04/20 00:24:43;;;;;;;9.05;3.88;;;;;;;2.22;100.00;98765.94;4985297;28;20034;-71
2023/04/20 00:27:08;;;;;;;6.40;3.28;;;;;;;2.04;100.00;98767.75;4996990;28;20053;-71
2023/04/20 00:29:33;;;;;;;6.63;3.22;;;;;;;1.89;100.00;98762.94;4993448;28;20406;-71
2023/04/20 00:31:59;;;;;;;8.20;2.97;;;;;;;1.86;100.00;98765.91;4994388;28;20377;-71
2023/04/20 00:34:24;;;;;;;9.10;3.50;;;;;;;1.89;100.00;98764.75;4991728;28;20393;-71
2023/04/20 00:36:49;;;;;;;6.22;3.15;;;;;;;1.93;100.00;98755.47;4992951;28;20041;-71
2023/04/20 00:39:15;;;;;;;7.65;2.95;;;;;;;1.92;100.00;98753.78;4994259;28;20453;-71
2023/04/20 00:41:40;;;;;;;5.43;3.17;;;;;;;1.96;100.00;98745.34;4994124;28;20058;-71
2023/04/20 00:44:10;;;;;;;7.35;3.25;;;;;;;1.88;100.00;98749.72;4991731;28;20037;-71
2023/04/20 00:46:36;;;;;;;7.35;3.08;;;;;;;1.85;100.00;98740.19;4992416;28;20498;-71
2023/04/20 00:49:02;;;;;;;5.10;3.08;;;;;;;1.74;100.00;98743.91;4994440;28;20113;-71
2023/04/20 00:51:28;;;;;;;7.53;3.53;;;;;;;1.65;100.00;98736.81;4991606;28;20018;-71
2023/04/20 00:53:53;;;;;;;8.82;3.58;;;;;;;1.64;100.00;98732.44;4989846;28;20030;-71
2023/04/20 00:56:19;;;;;;;8.82;3.20;;;;;;;1.61;100.00;98721.25;4992953;28;20096;-71
2023/04/20 00:58:45;;;;;;;5.65;3.13;;;;;;;1.42;100.00;98728.34;4993720;28;20026;-71
2023/04/20 01:01:11;;;;;;;4.75;2.92;;;;;;;1.30;100.00;98729.53;4991755;28;20022;-71
2023/04/20 01:03:38;;;;;;;5.10;3.15;;;;;;;1.13;100.00;98738.25;4996361;28;20493;-71
2023/04/20 01:06:06;;;;;;;5.75;3.10;;;;;;;1.05;100.00;98725.69;5007152;28;20145;-71
2023/04/20 01:08:31;;;;;;;7.25;3.20;;;;;;;1.00;100.00;98726.13;5004658;28;20030;-71
2023/04/20 01:10:56;;;;;;;7.82;2.97;;;;;;;1.00;100.00;98723.47;4994357;28;20136;-71
2023/04/20 01:13:26;;;;;;;5.25;2.95;;;;;;;1.06;100.00;98714.88;4991610;28;20026;-71
2023/04/20 01:15:51;;;;;;;;;;;;;;;1.25;100.00;98718.47;4989750;28;20022;-71
2023/04/20 01:18:19;;;;;;;8.48;3.15;;;;;;;1.03;100.00;98712.50;4994026;28;19913;-71
2023/04/20 01:20:48;;;;;;;7.70;3.47;;;;;;;0.93;100.00;98714.34;4994184;28;20113;-71
2023/04/20 01:23:13;;;;;;;9.63;3.35;;;;;;;0.80;100.00;98716.50;4980663;28;20063;-71
2023/04/20 01:25:40;;;;;;;5.57;2.95;;;;;;;0.89;100.00;98715.63;4984116;28;20076;-71
2023/04/20 01:28:05;;;;;;;8.88;3.97;;;;;;;0.87;100.00;98702.47;5005192;28;20034;-71
2023/04/20 01:30:31;;;;;;;8.13;3.67;;;;;;;0.95;100.00;98712.41;4989851;28;20429;-71
2023/04/20 01:32:56;;;;;;;9.27;3.95;;;;;;;0.93;100.00;98706.38;4989826;28;20113;-71
2023/04/20 01:35:21;;;;;;;11.25;4.07;;;;;;;1.02;100.00;98705.50;4988805;28;20034;-71
2023/04/20 01:37:47;;;;;;;10.27;3.92;;;;;;;1.15;100.00;98699.00;4993945;28;20445;-71
2023/04/20 01:40:13;;;;;;;8.32;4.05;;;;;;;1.19;100.00;98693.25;4992792;28;20030;-71
2023/04/20 01:42:39;;;;;;;10.07;3.80;;;;;;;1.20;100.00;98691.41;4992094;28;20038;-71
2023/04/20 01:45:05;;;;;;;10.25;3.90;;;;;;;1.12;100.00;98685.97;4990861;28;20113;-71
2023/04/20 01:47:31;;;;;;;8.65;3.83;;;;;;;1.12;100.00;98685.97;4985976;28;20080;-71
2023/04/20 01:49:57;;;;;;;6.18;3.53;;;;;;;1.19;100.00;98684.41;4986258;28;20466;-71
2023/04/20 01:52:22;;;;;;;8.05;3.88;;;;;;;1.15;100.00;98681.19;4991471;28;20129;-71
2023/04/20 01:54:47;;;;;;;23.25;7.05;;;;;;;1.15;100.00;98672.34;4989111;28;20064;-71
2023/04/20 01:57:13;;;;;;;18.60;6.40;;;;;;;1.18;100.00;98678.25;4992228;28;20030;-71
2023/04/20 01:59:38;;;;;;;11.60;5.53;;;;;;;1.18;100.00;98674.72;4986279;28;20091;-71
2023/04/20 02:02:04;;;;;;;13.25;6.72;;;;;;;1.17;100.00;98675.72;4988877;28;20037;-71
2023/04/20 02:04:29;;;;;;;7.70;4.13;;;;;;;1.17;100.00;98665.06;4988979;28;20034;-71
2023/04/20 02:06:55;;;;;;;6.13;3.80;;;;;;;1.06;100.00;98677.56;4991023;28;20022;-71
2023/04/20 02:09:20;;;;;;;8.85;3.90;;;;;;;1.03;100.00;98664.56;4994524;28;20103;-71
2023/04/20 02:11:46;;;;;;;8.38;3.83;;;;;;;0.92;100.00;98666.53;4989683;28;20114;-71
2023/04/20 02:14:11;;;;;;;7.93;4.47;;;;;;;0.87;100.00;98667.00;4988704;28;20116;-71
2023/04/20 02:16:36;;;;;;;7.72;3.75;;;;;;;0.84;100.00;98669.97;4989090;28;20076;-71
2023/04/20 02:19:02;;;;;;;7.25;4.13;;;;;;;0.84;100.00;98654.81;4991478;28;20030;-71
2023/04/20 02:21:27;;;;;;;6.88;4.00;;;;;;;0.89;100.00;98657.03;4992855;28;20022;-71
2023/04/20 02:23:53;;;;;;;6.18;3.88;;;;;;;0.81;100.00;98647.13;4988543;28;20030;-71
2023/04/20 02:26:18;;;;;;;8.52;4.18;;;;;;;0.74;100.00;98658.50;4992198;28;20026;-71
2023/04/20 02:28:44;;;;;;;5.95;3.78;;;;;;;0.56;100.00;98645.91;4989208;28;20026;-71
2023/04/20 02:31:09;;;;;;;11.18;4.28;;;;;;;0.38;100.00;98639.66;4990043;28;20465;-71
2023/04/20 02:33:36;;;;;;;8.77;3.85;;;;;;;0.32;100.00;98648.22;4987298;28;20085;-71
2023/04/20 02:36:01;;;;;;;7.30;4.32;;;;;;;0.34;100.00;98639.13;4991128;28;20080;-71
2023/04/20 02:38:27;;;;;;;7.82;4.07;;;;;;;0.30;100.00;98639.53;4989365;28;20489;-71
2023/04/20 02:40:52;;;;;;;8.52;4.45;;;;;;;0.40;100.00;98635.88;4985996;28;20018;-71
2023/04/20 02:43:18;;;;;;;8.68;4.63;;;;;;;0.33;100.00;98628.59;4985730;28;20027;-71
2023/04/20 02:45:43;;;;;;;12.68;4.65;;;;;;;0.36;100.00;98629.13;4987786;28;20052;-71
2023/04/20 02:48:08;;;;;;;7.85;4.82;;;;;;;0.28;100.00;98622.88;4990112;28;20393;-71
2023/04/20 02:50:35;;;;;;;7.85;4.20;;;;;;;0.23;100.00;98625.94;4983891;28;20018;-71
2023/04/20 02:53:05;;;;;;;8.93;4.13;;;;;;;0.15;100.00;98624.00;4992695;28;20393;-71
2023/04/20 02:55:30;;;;;;;6.72;3.63;;;;;;;0.08;100.00;98619.38;5002509;28;20023;-71
2023/04/20 02:57:56;;;;;;;6.97;3.92;;;;;;;0.10;100.00;98620.91;4990673;28;20037;-70
2023/04/20 03:00:21;;;;;;;7.72;4.38;;;;;;;0.12;100.00;98616.28;4985746;28;20532;-70
2023/04/20 03:02:53;;;;;;;7.75;4.55;;;;;;;0.05;100.00;98623.16;4987448;28;20494;-70
2023/04/20 03:05:18;;;;;;;11.85;5.30;;;;;;;-0.04;100.00;98616.03;4987099;28;20072;-70
2023/04/20 03:07:44;;;;;;;10.80;5.82;;;;;;;-0.13;100.00;98616.88;4987567;28;20496;-70
2023/04/20 03:10:10;;;;;;;10.45;5.03;;;;;;;-0.12;100.00;98618.56;4983860;28;20035;-70
2023/04/20 03:12:35;;;;;;;12.25;5.90;;;;;;;-0.17;100.00;98616.31;4991374;28;20030;-70
2023/04/20 03:15:03;;;;;;;10.07;5.03;;;;;;;-0.23;100.00;98609.75;4995489;28;20030;-70
2023/04/20 03:17:28;;;;;;;11.35;4.63;;;;;;;-0.22;100.00;98608.75;4990815;28;20033;-70
2023/04/20 03:19:53;;;;;;;10.65;4.40;;;;;;;-0.30;100.00;98611.28;4986258;28;20030;-70
2023/04/20 03:22:19;;;;;;;7.97;4.78;;;;;;;-0.38;100.00;98610.28;4990048;28;20374;-70
2023/04/20 03:24:45;;;;;;;8.23;4.40;;;;;;;-0.35;100.00;98610.84;4988529;28;20358;-70
2023/04/20 03:27:11;;;;;;;9.05;4.75;;;;;;;-0.29;100.00;98612.97;4990092;28;20108;-70
2023/04/20 03:29:36;;;;;;;10.23;4.55;;;;;;;-0.29;100.00;98618.28;4991966;28;20108;-70
2023/04/20 03:32:50;;;;;;;11.65;4.65;;;;;;;-0.28;100.00;98619.94;4990950;28;20130;-70
2023/04/20 03:35:16;;;;;;;9.48;4.65;;;;;;;-0.24;100.00;98636.44;4994338;28;20156;-70
2023/04/20 03:37:41;;;;;;;10.35;5.30;;;;;;;-0.25;100.00;98626.81;4993397;28;20049;-70
2023/04/20 03:40:22;;;;;;;8.13;5.00;;;;;;;-0.19;100.00;98622.75;4992358;28;20026;-70
2023/04/20 03:42:49;;;;;;;6.82;4.10;;;;;;;-0.18;100.00;98625.28;5006349;23;20053;-70
2023/04/20 03:45:14;;;;;;;8.27;5.07;;;;;;;-0.10;100.00;98621.94;4996846;28;20031;-70
2023/04/20 03:47:40;;;;;;;8.68;4.88;;;;;;;-0.01;100.00;98618.41;4989799;28;20421;-70
2023/04/20 03:50:06;;;;;;;14.35;5.00;;;;;;;-0.11;100.00;98613.09;4997265;28;20072;-71
2023/04/20 03:52:31;;;;;;;8.13;4.95;;;;;;;-0.09;100.00;98620.94;4997135;28;20363;-70
2023/04/20 03:54:57;;;;;;;9.38;4.63;;;;;;;-0.11;100.00;98602.44;5012819;28;20031;-70
2023/04/20 03:57:22;;;;;;;9.13;4.43;;;;;;;-0.11;100.00;98609.59;4992748;28;20030;-71
2023/04/20 03:59:48;;;;;;;7.93;4.07;;;;;;;-0.23;100.00;98611.56;5008666;28;20524;-71
2023/04/20 04:02:13;;;;;;;10.07;4.38;;;;;;;-0.32;100.00;98607.91;4991437;28;20081;-72
2023/04/20 04:04:40;;;;;;;7.53;4.50;;;;;;;-0.46;100.00;98611.81;4994890;28;20066;-72
2023/04/20 04:07:06;;;;;;;12.27;5.25;;;;;;;-0.39;100.00;98606.81;4993231;28;20346;-72
2023/04/20 04:09:31;;;;;;;10.82;5.22;;;;;;;-0.37;100.00;98604.81;4989381;28;20023;-71
2023/04/20 04:11:56;;;;;;;13.73;4.82;;;;;;;-0.42;100.00;98604.41;4988784;28;20429;-72
2023/04/20 04:14:22;;;;;;;6.40;4.28;;;;;;;-0.47;100.00;98607.50;4989248;28;20031;-72
2023/04/20 04:16:47;;;;;;;10.63;4.18;;;;;;;-0.53;100.00;98601.88;4994857;28;20488;-72
2023/04/20 04:19:13;;;;;;;9.23;4.75;;;;;;;-0.57;100.00;98603.16;4993148;28;20066;-71
2023/04/20 04:21:38;;;;;;;8.15;5.07;;;;;;;-0.64;100.00;98602.84;4993633;28;20154;-71
2023/04/20 04:24:04;;;;;;;6.60;4.45;;;;;;;-0.75;100.00;98611.78;4986932;28;20026;-72
2023/04/20 04:26:30;;;;;;;14.85;4.63;;;;;;;-0.79;100.00;98609.53;5009743;28;20057;-72
2023/04/20 04:28:56;;;;;;;8.82;4.90;;;;;;;-0.83;100.00;98608.97;4993203;28;20073;-72
2023/04/20 04:31:23;;;;;;;7.85;5.22;;;;;;;-0.72;100.00;98615.97;4994086;28;20405;-73
2023/04/20 04:33:49;;;;;;;10.02;4.95;;;;;;;-0.60;100.00;98609.56;4993319;28;20049;-71
2023/04/20 04:36:14;;;;;;;11.88;6.00;;;;;;;-0.62;100.00;98618.66;5010333;28;20030;-72
2023/04/20 04:38:43;;;;;;;9.43;5.18;;;;;;;-0.49;100.00;98614.75;4993188;28;20037;-71
2023/04/20 04:41:09;;;;;;;12.98;5.63;;;;;;;-0.27;100.00;98607.50;4998347;28;20026;-71
2023/04/20 04:43:34;;;;;;;10.85;5.20;;;;;;;-0.22;100.00;98607.91;5009546;28;20042;-71
2023/04/20 04:46:06;;;;;;;8.70;5.00;;;;;;;-0.23;100.00;98608.91;4993936;28;20058;-71
2023/04/20 04:48:34;;;;;;;12.38;5.68;;;;;;;-0.17;100.00;98600.38;5014619;28;21711;-71
2023/04/20 04:50:59;;;;;;;14.93;6.45;;;;;;;-0.16;100.00;98604.69;5002012;28;20026;-71
2023/04/20 04:53:25;;;;;;;13.02;6.05;;;;;;;-0.07;100.00;98595.06;4989334;28;20037;-71
2023/04/20 04:55:50;;;;;;;8.23;5.10;;;;;;;0.09;100.00;98597.13;5009458;28;20413;-71
2023/04/20 04:58:15;;;;;;;10.48;5.88;;;;;;;0.15;100.00;98589.41;4992290;28;20100;-71
2023/04/20 05:00:41;;;;;;;13.32;5.65;;;;;;;0.32;100.00;98587.00;4992925;28;20041;-71
2023/04/20 05:03:06;;;;;;;14.20;6.05;;;;;;;0.35;100.00;98589.38;5001371;28;20109;-71
2023/04/20 05:05:32;;;;;;;10.75;5.40;;;;;;;0.48;100.00;98589.91;4980508;28;20037;-71
2023/04/20 05:07:57;;;;;;;11.13;5.80;;;;;;;0.58;100.00;98590.72;4985140;28;20022;-73
2023/04/20 05:10:23;;;;;;;8.70;5.15;;;;;;;0.58;100.00;98588.06;4993622;28;20042;-72
2023/04/20 05:12:48;;;;;;;8.77;5.15;;;;;;;0.57;100.00;98586.34;4994795;28;20097;-73
2023/04/20 05:15:13;;;;;;;8.88;5.18;;;;;;;0.78;100.00;98586.13;4991983;28;20033;-72
2023/04/20 05:17:39;;;;;;;11.48;5.75;;;;;;;0.93;100.00;98577.69;4993975;28;20026;-73
2023/04/20 05:20:06;;;;;;;10.57;5.65;;;;;;;1.06;100.00;98580.84;4987629;28;20033;-73
2023/04/20 05:22:31;;;;;;;9.07;5.35;;;;;;;1.27;100.00;98573.41;4995119;28;20366;-73
2023/04/20 05:24:57;;;;;;;7.13;4.70;;;;;;;1.47;100.00;98576.81;4993715;28;20030;-73
2023/04/20 05:27:22;;;;;;;9.30;4.43;;;;;;;1.69;100.00;98577.34;4991683;28;20031;-73
2023/04/20 05:29:48;;;;;;;8.30;4.50;;;;;;;1.92;100.00;98573.22;4988067;28;20064;-73
2023/04/20 05:32:13;;;;;;;11.20;4.72;;;;;;;2.10;100.00;98573.19;4995658;28;20025;-75
2023/04/20 05:37:26;;;;;;;14.35;4.97;;;;;;;2.46;100.00;98578.44;5026879;28;20096;-56
2023/04/20 05:39:51;;;;;;;9.90;5.07;;;;;;;2.49;100.00;98569.25;5019297;28;20392;-56
2023/04/20 05:42:17;;;;;;;12.90;6.03;;;;;;;2.51;100.00;98577.97;5014756;28;20075;-56
2023/04/20 05:44:42;;;;;;;13.25;7.70;;;;;;;2.60;100.00;98575.19;5014756;28;20056;-56
2023/04/20 05:47:08;;;;;;;11.05;5.60;;;;;;;2.70;100.00;98572.41;5013134;28;20036;-56
2023/04/20 05:49:35;;;;;;;8.50;5.57;;;;;;;2.82;100.00;98572.97;5021088;28;20420;-57
2023/04/20 05:52:00;;;;;;;10.73;5.38;;;;;;;3.51;100.00;98563.00;5023831;28;20017;-56
2023/04/20 05:54:27;;;;;;;11.40;4.88;;;;;;;5.83;100.00;98556.69;5016560;28;20174;-56
2023/04/20 05:56:53;;;;;;;9.10;4.40;;;;;;;8.25;100.00;98557.81;5012108;28;20052;-56
2023/04/20 05:59:19;;;;;;;8.60;4.10;;;;;;;10.41;100.00;98550.28;5014774;28;20535;-57
2023/04/20 06:01:44;;;;;;;6.65;3.72;;;;;;;11.55;88.92;98548.94;5021352;28;20048;-56
2023/04/20 06:04:10;;;;;;;5.63;3.80;;;;;;;13.40;71.22;98543.03;5016258;28;20030;-57
2023/04/20 06:06:35;;;;;;;7.25;3.63;;;;;;;15.26;63.13;98536.50;5019275;28;20370;-57
2023/04/20 06:09:00;;;;;;;5.75;3.60;;;;;;;16.53;56.18;98546.31;5013603;28;20124;-57
2023/04/20 06:11:26;;;;;;;8.70;3.25;;;;;;;17.86;52.89;98545.41;5011512;28;20100;-55
2023/04/20 06:13:51;;;;;;;7.05;3.30;;;;;;;18.54;49.91;98539.47;5021711;28;20022;-55
2023/04/20 06:16:17;;;;;;;14.68;3.88;;;;;;;18.98;47.45;98545.59;5026862;28;20053;-55
2023/04/20 06:18:42;;;;;;;4.82;2.95;;;;;;;19.36;46.74;98532.66;5022087;28;20040;-55
2023/04/20 06:21:10;;;;;;;6.35;3.90;;;;;;;19.29;45.55;98551.25;5022388;28;20032;-55
2023/04/20 06:23:36;;;;;;;4.82;3.20;;;;;;;20.20;44.28;98544.47;5031446;28;20030;-55
2023/04/20 06:26:02;;;;;;;6.85;3.25;;;;;;;21.05;43.22;98540.34;5016843;28;20051;-55
2023/04/20 06:28:27;;;;;;;5.53;3.13;;;;;;;22.23;41.20;98529.66;5017408;28;20373;-55
2023/04/20 06:30:53;;;;;;;6.68;3.42;;;;;;;22.52;40.65;98522.25;5014372;28;20021;-55
2023/04/20 06:33:18;;;;;;;5.82;3.50;;;;;;;22.99;38.76;98528.22;5014264;28;20025;-55
2023/04/20 06:35:44;;;;;;;4.60;3.40;;;;;;;22.94;38.80;98520.78;5002815;28;20025;-55
2023/04/20 06:38:09;;;;;;;6.85;3.72;;;;;;;22.93;38.86;98521.09;5005546;28;21114;-55
2023/04/20 06:40:34;;;;;;;6.30;3.72;;;;;;;23.07;39.08;98515.72;5010135;28;20021;-63
2023/04/20 06:43:01;;;;;;;5.53;3.35;;;;;;;22.88;38.46;98516.44;5018964;28;20049;-64
2023/04/20 06:45:26;;;;;;;6.38;3.22;;;;;;;23.72;38.79;98506.97;5021255;28;20067;-64
2023/04/20 06:47:52;;;;;;;7.35;3.65;;;;;;;23.85;38.23;98506.22;5014411;28;20068;-64
2023/04/20 06:50:17;;;;;;;5.07;3.30;;;;;;;24.55;36.55;98508.22;5012411;28;20110;-64
2023/04/20 06:52:44;;;;;;;5.38;3.53;;;;;;;23.57;37.34;98510.72;5014842;28;20116;-65
2023/04/20 06:55:09;;;;;;;4.70;3.20;;;;;;;20.38;41.08;98512.84;5027975;28;20033;-64
2023/04/20 06:57:37;;;;;;;6.93;3.40;;;;;;;18.13;44.07;98520.78;5009132;28;20551;-64
2023/04/20 07:00:07;;;;;;;7.55;3.45;;;;;;;18.62;43.96;98512.41;5013360;28;21266;-65
2023/04/20 07:02:42;;;;;;;4.22;3.33;;;;;;;18.88;44.52;98509.88;5022174;28;20087;-64
2023/04/20 07:05:07;;;;;;;5.30;3.85;;;;;;;17.65;47.13;98514.22;5015778;28;20036;-63
2023/04/20 07:07:32;;;;;;;7.63;3.42;;;;;;;17.77;47.30;98508.63;5020605;28;20029;-63
2023/04/20 07:09:58;;;;;;;6.20;3.20;;;;;;;20.43;44.77;98501.03;5013888;28;20029;-63
2023/04/20 07:12:23;;;;;;;6.82;3.25;;;;;;;23.65;39.62;98500.94;5013070;28;20057;-64
2023/04/20 07:14:53;;;;;;;8.40;3.80;;;;;;;25.28;35.36;98491.97;5017897;28;21683;-64
2023/04/20 07:17:18;;;;;;;6.63;3.45;;;;;;;23.57;38.13;98494.97;5013802;28;20025;-64
2023/04/20 07:19:43;;;;;;;5.93;3.38;;;;;;;19.72;40.68;98505.34;5015061;28;20041;-64
2023/04/20 07:22:09;;;;;;;8.60;4.35;;;;;;;16.31;48.14;98513.44;5016504;28;20029;-63
2023/04/20 07:24:34;;;;;;;5.95;3.97;;;;;;;16.08;49.27;98510.84;5021769;28;20025;-64
2023/04/20 07:27:00;;;;;;;4.82;3.75;;;;;;;17.60;46.62;98505.13;5038015;28;20025;-64
2023/04/20 07:29:25;;;;;;;5.72;3.67;;;;;;;21.02;42.44;98497.69;5013429;28;20044;-63
2023/04/20 07:31:51;;;;;;;5.43;3.53;;;;;;;22.55;39.24;98479.50;5013615;28;20117;-64
2023/04/20 07:34:16;;;;;;;6.63;3.80;;;;;;;25.35;36.56;98484.88;5021540;28;20116;-64
2023/04/20 07:36:41;;;;;;;7.13;3.70;;;;;;;25.65;36.17;98487.31;5026300;28;20052;-64
2023/04/20 07:39:07;;;;;;;4.35;3.50;;;;;;;26.98;34.02;98481.34;5025520;28;20040;-64
2023/04/20 07:41:32;;;;;;;5.32;3.50;;;;;;;28.19;32.83;98473.38;5013340;28;20187;-64
2023/04/20 07:43:57;;;;;;;5.28;3.25;;;;;;;27.74;32.92;98479.16;5026441;28;20388;-64
2023/04/20 07:46:23;;;;;;;8.30;3.50;;;;;;;28.20;32.25;98479.75;5019077;28;20033;-65
2023/04/20 07:48:48;;;;;;;4.32;3.15;;;;;;;28.48;31.43;98471.91;5017576;28;20039;-66
2023/04/20 07:51:14;;;;;;;4.68;2.95;;;;;;;28.87;31.43;98472.75;5015209;28;20071;-66
2023/04/20 07:53:41;;;;;;;3.67;3.00;;;;;;;27.13;32.67;98477.34;5017955;28;20075;-65
2023/04/20 07:56:07;;;;;;;4.95;3.20;;;;;;;29.90;30.37;98479.03;5016999;28;20025;-66
2023/04/20 07:58:33;;;;;;;4.45;3.17;;;;;;;30.27;29.42;98473.66;5030481;28;20099;-65
2023/04/20 08:00:59;;;;;;;5.18;3.45;;;;;;;29.07;29.33;98484.38;5015285;28;20044;-65
2023/04/20 08:03:26;;;;;;;4.72;3.13;;;;;;;28.32;31.02;98481.84;5033054;28;20189;-66
2023/04/20 08:05:52;;;;;;;4.88;3.45;;;;;;;24.77;33.72;98473.53;5020005;28;20061;-66
2023/04/20 08:08:17;;;;;;;5.82;3.50;;;;;;;21.50;37.40;98487.09;5016500;28;20032;-65
2023/04/20 08:10:43;;;;;;;7.30;4.22;;;;;;;19.03;40.06;98479.00;5025101;28;20021;-64
2023/04/20 08:13:08;;;;;;;7.35;4.40;;;;;;;17.24;43.47;98489.13;5012638;28;20044;-64
2023/04/20 08:15:34;;;;;;;8.60;4.10;;;;;;;19.21;42.07;98464.81;5013221;28;20040;-64
2023/04/20 08:18:00;;;;;;;5.97;3.90;;;;;;;20.00;40.26;98467.53;5014679;28;20372;-64
2023/04/20 08:20:25;;;;;;;8.05;3.75;;;;;;;17.60;43.65;98467.66;5018749;28;20021;-64
2023/04/20 08:22:51;;;;;;;8.05;4.65;;;;;;;15.02;47.93;98478.53;5016510;28;20103;-64
2023/04/20 08:25:17;;;;;;;7.60;4.07;;;;;;;14.01;51.34;98481.31;5015365;28;20081;-64
2023/04/20 08:27:42;;;;;;;7.97;4.72;;;;;;;14.30;52.53;98478.75;5017808;28;20026;-64
2023/04/20 08:30:08;;;;;;;7.38;4.13;;;;;;;14.66;52.95;98480.44;5014012;28;20017;-58
2023/04/20 08:32:33;;;;;;;5.93;3.78;;;;;;;16.75;47.85;98466.31;5015803;28;20443;-66
2023/04/20 08:34:59;;;;;;;7.57;3.80;;;;;;;15.24;51.07;98473.25;5026945;28;20116;-67
2023/04/20 08:37:24;;;;;;;8.80;4.60;;;;;;;12.61;56.04;98477.66;5022328;28;20092;-66
2023/04/20 08:39:50;;;;;;;7.78;4.50;;;;;;;11.80;62.83;98475.84;5028540;28;20021;-67
2023/04/20 08:42:15;;;;;;;6.90;4.20;;;;;;;10.81;85.29;98479.88;5016689;28;20104;-69
2023/04/20 08:44:41;;;;;;;6.40;4.35;;;;;;;10.39;100.00;98488.28;5015954;28;20064;-70
2023/04/20 08:47:10;;;;;;;10.38;4.28;;;;;;;9.94;100.00;98487.22;5014022;28;20060;-70
2023/04/20 08:49:38;;;;;;;7.40;4.13;;;;;;;9.63;100.00;98485.94;5027091;28;20049;-66
2023/04/20 08:52:04;;;;;;;6.45;4.00;;;;;;;9.44;100.00;98487.56;5017310;28;20318;-67
2023/04/20 08:54:30;;;;;;;7.22;4.53;;;;;;;9.22;100.00;98486.84;5032642;28;20107;-66
2023/04/20 08:56:55;;;;;;;7.45;4.28;;;;;;;9.61;100.00;98480.72;5018338;28;20358;-66
2023/04/20 08:59:21;;;;;;;8.80;4.70;;;;;;;9.36;100.00;98487.75;5015343;28;20026;-65
2023/04/20 09:01:46;;;;;;;7.72;4.63;;;;;;;9.28;100.00;98486.06;5016056;28;20132;-67
2023/04/20 09:04:20;;;;;;;8.50;4.68;;;;;;;9.11;100.00;98485.56;5029632;28;20389;-66
2023/04/20 09:06:49;;;;;;;7.10;4.07;;;;;;;8.97;100.00;98487.38;5017058;28;20031;-66
2023/04/20 09:09:14;;;;;;;5.10;3.40;;;;;;;9.44;100.00;98484.84;5006699;28;20051;-67
2023/04/20 09:11:40;;;;;;;9.30;4.78;;;;;;;9.74;100.00;98487.19;5027469;28;20288;-67
2023/04/20 09:14:11;;;;;;;7.82;4.70;;;;;;;10.05;100.00;98483.88;5017529;28;20028;-67
2023/04/20 09:16:46;;;;;;;10.02;4.28;;;;;;;10.37;100.00;98468.72;5015335;28;20032;-67
2023/04/20 09:19:25;;;;;;;10.52;4.18;;;;;;;10.29;100.00;98485.16;5020281;28;20032;-67
2023/04/20 09:21:54;;;;;;;8.68;4.60;;;;;;;9.51;100.00;98483.00;5018487;23;20132;-67
2023/04/20 09:24:21;;;;;;;10.48;4.97;;;;;;;9.41;100.00;98478.00;5023106;23;20045;-75
2023/04/20 09:26:47;;;;;;;8.75;4.70;;;;;;;9.19;100.00;98471.06;5010052;28;20042;-75
2023/04/20 09:29:17;;;;;;;9.27;4.90;;;;;;;9.09;100.00;98489.50;5012259;28;20023;-75
2023/04/20 09:31:43;;;;;;;11.98;4.97;;;;;;;9.23;100.00;98474.22;5003619;28;20033;-73
2023/04/20 09:34:08;;;;;;;8.57;5.22;;;;;;;9.10;100.00;98456.94;5013143;28;20395;-75
2023/04/20 09:36:46;;;;;;;12.80;5.45;;;;;;;9.23;100.00;98483.13;5011952;28;20060;-75
2023/04/20 09:39:17;;;;;;;10.82;4.80;;;;;;;9.25;100.00;98450.53;5009508;28;20034;-75
2023/04/20 09:41:44;;;;;;;8.65;4.82;;;;;;;9.77;100.00;98481.38;5002521;28;20506;-76
2023/04/20 09:44:10;;;;;;;10.90;4.80;;;;;;;10.12;100.00;98467.69;5013557;28;20091;-73
2023/04/20 09:46:39;;;;;;;7.35;4.10;;;;;;;10.24;100.00;98466.84;5012376;28;20034;-71
2023/04/20 09:49:06;;;;;;;8.70;4.40;;;;;;;10.62;100.00;98463.47;5002456;28;20022;-71
2023/04/20 09:51:37;;;;;;;6.80;4.25;;;;;;;10.73;100.00;98453.88;5009617;28;21160;-71
2023/04/20 09:54:04;;;;;;;7.95;4.47;;;;;;;11.03;100.00;98462.31;4998737;28;20030;-71
2023/04/20 09:56:31;;;;;;;9.32;4.45;;;;;;;10.79;100.00;98447.59;5012169;28;20025;-69
2023/04/20 09:58:58;;;;;;;8.45;4.68;;;;;;;10.89;100.00;98466.09;5005784;28;20030;-74
2023/04/20 10:01:23;;;;;;;6.88;4.38;;;;;;;10.95;100.00;98441.72;5004574;28;20068;-80
2023/04/20 10:03:52;;;;;;;8.98;4.40;;;;;;;11.20;100.00;98451.81;5013269;28;20443;-76
2023/04/20 10:06:31;;;;;;;7.28;4.68;;;;;;;11.06;100.00;98459.16;4997549;28;20033;-75
2023/04/20 10:08:57;;;;;;;6.50;4.20;;;;;;;11.01;100.00;98458.97;4993695;28;20040;-76
2023/04/20 10:11:28;;;;;;;6.57;4.22;;;;;;;10.98;100.00;98456.72;5019109;28;20050;-75
2023/04/20 10:13:55;;;;;;;7.93;4.35;;;;;;;11.16;100.00;98443.28;5012578;28;20467;-74
2023/04/20 10:16:21;;;;;;;5.65;3.92;;;;;;;11.54;100.00;98453.28;5010354;28;20113;-72
2023/04/20 10:18:56;;;;;;;8.27;4.68;;;;;;;11.47;98.52;98443.53;5004798;28;20097;-73
2023/04/20 10:21:22;;;;;;;7.50;4.05;;;;;;;11.24;99.07;98422.41;5011347;28;20038;-73
2023/04/20 10:23:49;;;;;;;7.20;4.47;;;;;;;11.26;100.00;98440.09;5007987;28;20034;-72
2023/04/20 10:26:15;;;;;;;9.95;4.35;;;;;;;11.29;100.00;98436.97;5012172;28;20036;-73
2023/04/20 10:28:43;;;;;;;6.30;4.25;;;;;;;11.38;99.93;98438.38;4994831;28;20041;-73
2023/04/20 10:31:14;;;;;;;6.03;3.97;;;;;;;11.53;100.00;98448.91;4985658;28;20117;-73
2023/04/20 10:33:53;;;;;;;5.55;4.03;;;;;;;11.40;98.98;98428.16;5001723;28;20022;-73
2023/04/20 10:36:26;;;;;;;;;;;;;;;11.25;98.90;98440.34;4990245;28;20029;-74
2023/04/20 10:38:52;;;;;;;5.72;3.90;;;;;;;10.90;100.00;98427.19;5011332;28;20029;-73
2023/04/20 10:41:17;;;;;;;5.22;3.88;;;;;;;10.79;100.00;98431.34;5002888;28;20030;-69
2023/04/20 10:43:42;;;;;;;6.13;3.75;;;;;;;10.80;100.00;98426.81;5001380;28;20042;-69
2023/04/20 10:46:18;;;;;;;6.93;3.83;;;;;;;10.84;100.00;98436.13;5003993;28;20459;-74
2023/04/20 10:49:00;;;;;;;8.30;4.10;;;;;;;10.63;100.00;98423.72;4986724;28;20032;-76
2023/04/20 10:51:25;;;;;;;7.63;3.70;;;;;;;10.09;100.00;98414.88;5008853;28;20365;-75
2023/04/20 10:54:18;;;;;;;6.20;3.88;;;;;;;10.13;100.00;98432.31;5001144;28;20033;-74
2023/04/20 10:56:45;;;;;;;6.70;3.97;;;;;;;10.04;100.00;98429.00;4993037;28;20553;-74
2023/04/20 10:59:16;;;;;;;8.25;4.75;;;;;;;9.85;100.00;98409.06;5010904;28;20045;-81
2023/04/20 11:01:42;;;;;;;6.72;4.20;;;;;;;9.74;100.00;98425.88;4980217;28;20030;-80
2023/04/20 11:04:12;;;;;;;6.72;4.07;;;;;;;9.74;100.00;98423.19;4999519;28;20036;-77
2023/04/20 11:06:39;;;;;;;7.32;4.75;;;;;;;9.58;100.00;98413.63;5014076;28;20033;-82
2023/04/20 11:09:17;;;;;;;6.43;3.95;;;;;;;8.70;100.00;98383.94;5006922;28;20030;-89
2023/04/20 11:11:42;;;;;;;6.50;3.40;;;;;;;8.71;100.00;98403.66;4991715;28;20030;-83
2023/04/20 11:14:09;;;;;;;5.20;3.30;;;;;;;8.34;100.00;98405.72;4990611;28;20032;-81
2023/04/20 11:16:35;;;;;;;6.75;4.05;;;;;;;8.10;100.00;98367.44;5019530;28;20037;-82
2023/04/20 11:19:02;;;;;;;7.22;4.50;;;;;;;8.21;100.00;98389.47;5002151;28;20030;-82
2023/04/20 11:21:41;;;;;;;7.05;4.53;;;;;;;8.17;100.00;98355.88;5008144;28;20093;-81
2023/04/20 11:24:20;;;;;;;6.78;4.68;;;;;;;8.51;100.00;98382.84;5012509;28;20045;-80
2023/04/20 11:26:49;;;;;;;5.43;3.97;;;;;;;8.72;100.00;98381.03;4994723;28;20030;-80
2023/04/20 11:29:33;;;;;;;9.57;4.20;;;;;;;9.18;100.00;98378.47;5004390;28;20022;-79